createdAt,value
2022-10-04T00:02:12.746Z,13.80
2022-10-04T00:04:40.288Z,13.07
2022-10-04T00:07:15.218Z,14.25
2022-10-04T00:09:54.826Z,13.40
2022-10-04T00:12:24.548Z,17.05
2022-10-04T00:14:53.663Z,13.02
2022-10-04T00:17:23.924Z,17.10
2022-10-04T00:19:52.875Z,17.75
2022-10-04T00:22:47.751Z,14.13
2022-10-04T00:25:17.500Z,13.05
2022-10-04T00:28:03.661Z,12.48
2022-10-04T00:30:37.653Z,16.95
2022-10-04T00:33:05.427Z,14.45
2022-10-04T00:35:32.939Z,13.48
2022-10-04T00:38:09.350Z,13.80
2022-10-04T00:40:40.443Z,12.18
2022-10-04T00:43:10.757Z,11.43
2022-10-04T00:45:49.877Z,13.75
2022-10-04T00:48:36.870Z,12.68
2022-10-04T00:51:07.443Z,14.43
2022-10-04T00:53:34.947Z,12.88
2022-10-04T00:56:03.647Z,13.48
2022-10-04T00:58:36.080Z,11.90
2022-10-04T01:01:04.208Z,12.40
2022-10-04T01:03:34.448Z,14.30
2022-10-04T01:06:04.119Z,15.43
2022-10-04T01:08:38.273Z,17.33
2022-10-04T01:11:08.602Z,13.50
2022-10-04T01:13:40.708Z,11.02
2022-10-04T01:16:34.765Z,17.17
2022-10-04T01:19:21.583Z,16.95
2022-10-04T01:22:07.544Z,11.70
2022-10-04T01:24:36.227Z,11.23
2022-10-04T01:27:04.067Z,13.65
2022-10-04T01:29:32.276Z,10.65
2022-10-04T01:32:00.753Z,11.27
2022-10-04T01:34:30.112Z,13.48
2022-10-04T01:37:01.119Z,9.52
2022-10-04T01:39:29.382Z,11.47
2022-10-04T01:41:58.258Z,9.90
2022-10-04T01:44:31.574Z,11.18
2022-10-04T01:47:01.342Z,9.00
2022-10-04T01:49:31.387Z,12.07
2022-10-04T01:52:08.267Z,10.80
2022-10-04T01:54:38.231Z,11.73
2022-10-04T01:57:08.420Z,13.65
2022-10-04T01:59:40.715Z,9.52
2022-10-04T02:02:34.334Z,9.00
2022-10-04T02:05:02.681Z,12.43
2022-10-04T02:07:31.907Z,8.57
2022-10-04T02:10:01.825Z,8.90
2022-10-04T02:12:31.408Z,12.10
2022-10-04T02:15:01.805Z,9.05
2022-10-04T02:17:31.908Z,9.27
2022-10-04T02:20:01.390Z,8.73
2022-10-04T02:22:29.494Z,9.88
2022-10-04T02:24:57.499Z,10.68
2022-10-04T02:27:29.328Z,10.00
2022-10-04T02:32:43.164Z,12.93
2022-10-04T02:35:11.231Z,10.15
2022-10-04T02:37:40.021Z,10.20
2022-10-04T02:40:14.793Z,8.70
2022-10-04T02:42:48.154Z,9.98
2022-10-04T02:45:38.795Z,10.20
2022-10-04T02:48:12.270Z,9.63
2022-10-04T02:50:50.716Z,8.63
2022-10-04T02:53:37.900Z,9.23
2022-10-04T02:56:05.850Z,8.25
2022-10-04T02:58:33.439Z,11.40
2022-10-04T03:01:01.806Z,12.23
2022-10-04T03:03:40.099Z,9.63
2022-10-04T03:06:16.421Z,9.65
2022-10-04T03:08:43.907Z,7.88
2022-10-04T03:11:12.622Z,9.45
2022-10-04T03:13:41.596Z,10.35
2022-10-04T03:16:09.404Z,8.93
2022-10-04T03:18:37.802Z,9.10
2022-10-04T03:21:10.313Z,9.85
2022-10-04T03:23:38.284Z,10.40
2022-10-04T03:26:05.867Z,10.07
2022-10-04T03:28:33.497Z,9.82
2022-10-04T03:31:01.202Z,9.63
2022-10-04T03:33:29.226Z,11.93
2022-10-04T03:35:58.419Z,9.38
2022-10-04T03:38:26.435Z,9.95
2022-10-04T03:41:01.735Z,9.13
2022-10-04T03:43:34.351Z,8.15
2022-10-04T03:46:02.707Z,12.20
2022-10-04T03:48:32.081Z,7.45
2022-10-04T03:50:59.828Z,9.55
2022-10-04T03:53:32.883Z,9.50
2022-10-04T03:56:04.249Z,7.65
2022-10-04T03:58:32.624Z,9.40
2022-10-04T04:01:03.302Z,9.60
2022-10-04T04:03:35.764Z,12.43
2022-10-04T04:06:06.760Z,7.97
2022-10-04T04:08:35.184Z,9.67
2022-10-04T04:11:04.073Z,6.90
2022-10-04T04:13:47.628Z,11.68
2022-10-04T04:16:15.345Z,11.05
2022-10-04T04:18:44.732Z,10.07
2022-10-04T04:21:15.907Z,8.85
2022-10-04T04:23:51.910Z,9.25
2022-10-04T04:26:39.120Z,8.50
2022-10-04T04:29:06.676Z,9.75
2022-10-04T04:31:36.662Z,10.70
2022-10-04T04:34:06.369Z,11.57
2022-10-04T04:36:43.106Z,8.77
2022-10-04T04:39:34.463Z,9.20
2022-10-04T04:42:11.135Z,9.07
2022-10-04T04:44:39.782Z,10.32
2022-10-04T04:47:10.142Z,12.27
2022-10-04T04:49:40.036Z,9.25
2022-10-04T04:52:14.660Z,9.10
2022-10-04T04:54:43.623Z,10.23
2022-10-04T04:57:15.354Z,9.73
2022-10-04T04:59:45.252Z,8.82
2022-10-04T05:02:48.400Z,9.38
2022-10-04T05:05:24.210Z,8.50
2022-10-04T05:08:04.362Z,9.40
2022-10-04T05:10:35.118Z,10.30
2022-10-04T05:13:04.173Z,9.10
2022-10-04T05:15:34.010Z,11.02
2022-10-04T05:18:02.032Z,10.23
2022-10-04T05:20:31.513Z,8.88
2022-10-04T05:22:59.483Z,8.60
2022-10-04T05:25:33.195Z,11.05
2022-10-04T05:28:00.900Z,9.75
2022-10-04T05:30:37.353Z,12.27
2022-10-04T05:33:13.263Z,8.88
2022-10-04T05:35:54.107Z,8.05
2022-10-04T05:38:40.621Z,10.48
2022-10-04T05:41:10.034Z,8.82
2022-10-04T05:43:39.141Z,11.15
2022-10-04T05:46:24.773Z,13.05
2022-10-04T05:49:01.701Z,12.82
2022-10-04T05:51:30.882Z,12.32
2022-10-04T05:54:00.514Z,9.73
2022-10-04T05:56:30.770Z,11.82
2022-10-04T05:58:58.701Z,12.32
2022-10-04T06:01:29.347Z,9.85
2022-10-04T06:04:03.179Z,9.82
2022-10-04T06:06:49.839Z,12.57
2022-10-04T06:09:36.327Z,8.95
2022-10-04T06:12:30.009Z,9.50
2022-10-04T06:15:09.658Z,12.60
2022-10-04T06:17:40.632Z,10.75
2022-10-04T06:20:27.055Z,10.13
2022-10-04T06:23:00.673Z,10.10
2022-10-04T06:25:30.254Z,11.00
2022-10-04T06:28:14.283Z,16.10
2022-10-04T06:31:00.951Z,12.45
2022-10-04T06:33:43.523Z,8.25
2022-10-04T06:36:29.198Z,9.85
2022-10-04T06:39:04.377Z,10.52
2022-10-04T06:41:40.062Z,12.70
2022-10-04T06:44:27.333Z,10.93
2022-10-04T06:47:00.784Z,9.20
2022-10-04T06:49:37.048Z,9.52
2022-10-04T06:52:17.504Z,9.85
2022-10-04T06:55:00.281Z,16.42
2022-10-04T06:57:32.195Z,8.15
2022-10-04T07:02:31.125Z,11.23
2022-10-04T07:05:09.284Z,12.77
2022-10-04T07:07:39.588Z,10.98
2022-10-04T07:10:16.790Z,12.93
2022-10-04T07:12:46.447Z,11.40
2022-10-04T07:15:19.931Z,10.98
2022-10-04T07:17:48.890Z,12.82
2022-10-04T07:20:28.160Z,13.35
2022-10-04T07:22:59.505Z,11.75
2022-10-04T07:25:32.641Z,10.85
2022-10-04T07:28:24.361Z,14.65
2022-10-04T07:30:59.063Z,12.75
2022-10-04T07:33:28.786Z,13.27
2022-10-04T07:36:02.431Z,12.23
2022-10-04T07:38:32.800Z,8.20
2022-10-04T07:41:18.950Z,10.25
2022-10-04T07:43:56.030Z,8.70
2022-10-04T07:46:44.098Z,12.77
2022-10-04T07:49:21.647Z,6.97
2022-10-04T07:52:07.947Z,8.88
2022-10-04T07:54:46.747Z,9.93
2022-10-04T07:57:34.618Z,7.82
2022-10-04T08:00:14.256Z,5.32
2022-10-04T08:02:48.141Z,6.03
2022-10-04T08:05:19.057Z,13.82
2022-10-04T08:07:49.467Z,7.53
2022-10-04T08:10:29.373Z,7.30
2022-10-04T08:13:02.952Z,7.03
2022-10-04T08:15:41.225Z,7.38
2022-10-04T08:18:27.570Z,6.13
2022-10-04T08:21:03.873Z,7.95
2022-10-04T08:23:57.757Z,6.53
2022-10-04T08:26:34.819Z,8.75
2022-10-04T08:29:39.962Z,7.78
2022-10-04T08:32:20.213Z,8.88
2022-10-04T08:35:04.128Z,8.20
2022-10-04T08:37:53.678Z,8.52
2022-10-04T08:40:39.775Z,7.40
2022-10-04T08:43:20.066Z,8.57
2022-10-04T08:46:09.569Z,8.68
2022-10-04T08:48:49.377Z,4.45
2022-10-04T08:51:19.730Z,4.78
2022-10-04T08:53:50.017Z,3.75
2022-10-04T08:56:37.705Z,6.10
2022-10-04T08:59:23.900Z,7.50
2022-10-04T09:02:10.267Z,9.23
2022-10-04T09:05:09.372Z,6.32
2022-10-04T09:07:49.376Z,5.55
2022-10-04T09:10:28.998Z,7.70
2022-10-04T09:13:02.511Z,8.40
2022-10-04T09:15:39.134Z,7.18
2022-10-04T09:18:12.903Z,4.50
2022-10-04T09:20:48.888Z,4.78
2022-10-04T09:23:23.064Z,5.45
2022-10-04T09:26:09.255Z,5.10
2022-10-04T09:28:46.068Z,6.07
2022-10-04T09:31:16.777Z,6.47
2022-10-04T09:33:55.002Z,8.80
2022-10-04T09:36:28.687Z,8.60
2022-10-04T09:39:29.467Z,14.15
2022-10-04T09:42:17.959Z,5.10
2022-10-04T09:44:51.695Z,6.13
2022-10-04T09:47:31.806Z,5.03
2022-10-04T09:50:02.493Z,5.43
2022-10-04T09:52:33.973Z,8.98
2022-10-04T09:55:10.339Z,4.13
2022-10-04T09:57:53.479Z,3.97
2022-10-04T10:00:26.863Z,4.82
2022-10-04T10:03:23.940Z,5.63
2022-10-04T10:06:10.505Z,6.78
2022-10-04T10:08:56.747Z,8.63
2022-10-04T10:11:48.406Z,5.07
2022-10-04T10:14:30.879Z,7.13
2022-10-04T10:17:04.915Z,6.00
2022-10-04T10:19:39.502Z,6.70
2022-10-04T10:22:22.949Z,5.00
2022-10-04T10:24:59.534Z,6.78
2022-10-04T10:27:43.028Z,6.03
2022-10-04T10:30:17.435Z,5.75
2022-10-04T10:33:11.866Z,4.97
2022-10-04T10:35:39.548Z,4.80
2022-10-04T10:38:16.436Z,5.00
2022-10-04T10:41:03.390Z,4.85
2022-10-04T10:43:46.412Z,3.53
2022-10-04T10:46:21.663Z,4.38
2022-10-04T10:49:05.398Z,3.75
2022-10-04T10:51:56.218Z,7.50
2022-10-04T10:54:34.104Z,6.88
2022-10-04T10:57:24.035Z,10.30
2022-10-04T11:00:00.578Z,6.10
2022-10-04T11:02:50.702Z,8.23
2022-10-04T11:05:30.098Z,6.10
2022-10-04T11:08:10.998Z,3.92
2022-10-04T11:10:59.827Z,5.75
2022-10-04T11:13:37.262Z,4.30
2022-10-04T11:16:17.903Z,5.07
2022-10-04T11:19:04.157Z,5.18
2022-10-04T11:21:47.143Z,5.50
2022-10-04T11:24:34.993Z,8.32
2022-10-04T11:27:07.488Z,4.60
2022-10-04T11:29:44.546Z,5.10
2022-10-04T11:32:41.662Z,9.88
2022-10-04T11:35:36.795Z,5.82
2022-10-04T11:38:47.926Z,6.20
2022-10-04T11:41:24.217Z,7.78
2022-10-04T11:43:57.492Z,7.25
2022-10-04T11:46:46.553Z,5.60
2022-10-04T11:49:35.568Z,6.55
2022-10-04T11:52:04.493Z,5.10
2022-10-04T11:54:32.018Z,4.43
2022-10-04T11:57:02.791Z,6.88
2022-10-04T11:59:33.317Z,4.78
2022-10-04T12:02:20.091Z,5.82
2022-10-04T12:04:53.925Z,7.75
2022-10-04T12:07:31.357Z,4.15
2022-10-04T12:10:14.352Z,4.80
2022-10-04T12:12:53.191Z,7.97
2022-10-04T12:15:27.910Z,5.35
2022-10-04T12:18:14.634Z,4.32
2022-10-04T12:20:53.639Z,8.18
2022-10-04T12:23:21.160Z,5.13
2022-10-04T12:26:08.079Z,4.45
2022-10-04T12:28:36.882Z,3.55
2022-10-04T12:31:05.358Z,4.82
2022-10-04T12:34:08.822Z,4.07
2022-10-04T12:36:46.103Z,4.40
2022-10-04T12:39:40.978Z,7.18
2022-10-04T12:42:08.543Z,6.85
2022-10-04T12:44:54.669Z,3.95
2022-10-04T12:47:37.663Z,4.10
2022-10-04T12:50:25.873Z,9.00
2022-10-04T12:53:11.661Z,4.75
2022-10-04T12:55:39.158Z,3.97
2022-10-04T12:58:11.265Z,1.92
2022-10-04T13:00:42.287Z,5.30
2022-10-04T13:03:29.166Z,4.20
2022-10-04T13:06:21.109Z,6.00
2022-10-04T13:08:57.650Z,3.42
2022-10-04T13:11:25.143Z,7.68
2022-10-04T13:14:20.576Z,7.90
2022-10-04T13:19:53.035Z,6.57
2022-10-04T13:22:54.630Z,5.72
2022-10-04T13:25:21.800Z,4.15
2022-10-04T13:27:55.460Z,9.18
2022-10-04T13:30:27.794Z,6.50
2022-10-04T13:33:06.385Z,6.55
2022-10-04T13:36:09.215Z,3.97
2022-10-04T13:38:53.681Z,6.53
2022-10-04T13:41:40.107Z,6.05
2022-10-04T13:44:10.693Z,6.22
2022-10-04T13:46:56.754Z,5.28
2022-10-04T13:49:27.940Z,6.60
2022-10-04T13:52:31.898Z,3.88
2022-10-04T13:55:24.134Z,4.55
2022-10-04T14:00:48.561Z,6.05
2022-10-04T14:03:24.106Z,4.82
2022-10-04T14:05:54.758Z,5.15
2022-10-04T14:08:36.020Z,4.55
2022-10-04T14:11:18.036Z,3.10
2022-10-04T14:13:48.790Z,7.13
2022-10-04T14:16:34.152Z,3.50
2022-10-04T14:19:11.337Z,7.00
2022-10-04T14:21:50.932Z,4.03
2022-10-04T14:24:35.165Z,7.18
2022-10-04T14:27:22.233Z,8.98
2022-10-04T14:29:59.681Z,2.58
2022-10-04T14:32:45.840Z,6.63
2022-10-04T14:35:13.350Z,5.05
2022-10-04T14:37:44.184Z,3.95
2022-10-04T14:40:28.029Z,2.17
2022-10-04T14:43:05.847Z,4.18
2022-10-04T14:45:37.691Z,6.20
2022-10-04T14:50:48.036Z,3.47
2022-10-04T14:53:27.571Z,4.47
2022-10-04T14:56:07.848Z,2.35
2022-10-04T14:58:41.466Z,5.40
2022-10-04T15:01:20.552Z,6.47
2022-10-04T15:03:48.262Z,8.20
2022-10-04T15:06:21.207Z,5.68
2022-10-04T15:08:57.865Z,4.20
2022-10-04T15:11:40.178Z,5.53
2022-10-04T15:14:26.936Z,3.63
2022-10-04T15:17:00.067Z,3.35
2022-10-04T15:19:33.498Z,3.65
2022-10-04T15:22:04.136Z,6.57
2022-10-04T15:24:44.445Z,3.72
2022-10-04T15:27:24.601Z,4.18
2022-10-04T15:29:55.459Z,6.75
2022-10-04T15:32:27.629Z,5.28
2022-10-04T15:34:56.527Z,2.90
2022-10-04T15:37:27.919Z,2.25
2022-10-04T15:40:17.191Z,3.63
2022-10-04T15:43:07.315Z,4.45
2022-10-04T15:45:40.782Z,4.90
2022-10-04T15:48:10.972Z,5.85
2022-10-04T15:50:38.725Z,4.75
2022-10-04T15:53:35.774Z,2.60
2022-10-04T15:56:12.958Z,3.03
2022-10-04T15:58:54.363Z,5.03
2022-10-04T16:01:37.046Z,6.68
2022-10-04T16:04:28.036Z,3.58
2022-10-04T16:06:56.131Z,2.75
2022-10-04T16:09:23.628Z,3.83
2022-10-04T16:12:08.138Z,5.55
2022-10-04T16:14:38.427Z,4.90
2022-10-04T16:17:11.753Z,2.38
2022-10-04T16:19:39.236Z,3.03
2022-10-04T16:22:21.457Z,6.55
2022-10-04T16:25:23.943Z,2.75
2022-10-04T16:27:58.547Z,3.58
2022-10-04T16:30:28.825Z,3.17
2022-10-04T16:32:59.467Z,5.82
2022-10-04T16:35:32.086Z,6.53
2022-10-04T16:38:05.147Z,3.95
2022-10-04T16:40:47.664Z,3.17
2022-10-04T16:43:18.005Z,5.45
2022-10-04T16:45:51.606Z,5.40
2022-10-04T16:48:23.238Z,3.92
2022-10-04T16:51:06.005Z,8.02
2022-10-04T16:53:43.664Z,8.93
2022-10-04T16:56:15.215Z,8.80
2022-10-04T16:58:44.060Z,3.95
2022-10-04T17:01:23.729Z,5.88
2022-10-04T17:03:59.725Z,6.30
2022-10-04T17:06:47.256Z,5.82
2022-10-04T17:09:24.825Z,8.30
2022-10-04T17:11:55.409Z,8.80
2022-10-04T17:14:55.127Z,5.95
2022-10-04T17:17:24.669Z,7.53
2022-10-04T17:19:57.309Z,5.68
2022-10-04T17:22:33.271Z,8.65
2022-10-04T17:25:21.124Z,9.90
2022-10-04T17:27:58.217Z,5.63
2022-10-04T17:30:27.347Z,8.32
2022-10-04T17:33:13.442Z,10.77
2022-10-04T17:35:52.966Z,8.27
2022-10-04T17:38:32.643Z,9.48
2022-10-04T17:41:04.478Z,9.90
2022-10-04T17:43:41.205Z,7.70
2022-10-04T17:46:09.088Z,10.95
2022-10-04T17:49:01.197Z,9.95
2022-10-04T17:51:50.155Z,7.32
2022-10-04T17:54:45.105Z,9.20
2022-10-04T17:57:21.687Z,8.90
2022-10-04T17:59:52.866Z,8.68
2022-10-04T18:02:27.799Z,10.55
2022-10-04T18:04:57.702Z,9.70
2022-10-04T18:07:27.306Z,9.70
2022-10-04T18:10:17.586Z,11.02
2022-10-04T18:12:51.083Z,10.95
2022-10-04T18:15:25.815Z,10.82
2022-10-04T18:18:07.011Z,8.82
2022-10-04T18:20:35.688Z,10.77
2022-10-04T18:23:21.852Z,8.80
2022-10-04T18:25:49.447Z,6.78
2022-10-04T18:28:21.657Z,7.88
2022-10-04T18:30:49.289Z,12.63
2022-10-04T18:33:17.742Z,8.23
2022-10-04T18:35:55.050Z,10.30
2022-10-04T18:38:26.843Z,10.75
2022-10-04T18:41:15.402Z,10.43
2022-10-04T18:43:50.929Z,13.98
2022-10-04T18:46:23.160Z,11.85
2022-10-04T18:48:56.876Z,8.38
2022-10-04T18:51:24.408Z,10.73
2022-10-04T18:53:59.937Z,13.70
2022-10-04T18:56:33.983Z,11.52
2022-10-04T18:59:39.211Z,14.00
2022-10-04T19:02:20.295Z,8.77
2022-10-04T19:05:01.323Z,11.43
2022-10-04T19:07:38.827Z,9.18
2022-10-04T19:10:12.317Z,10.90
2022-10-04T19:12:52.360Z,10.23
2022-10-04T19:15:26.157Z,14.23
2022-10-04T19:17:53.682Z,11.20
2022-10-04T19:20:29.231Z,12.02
2022-10-04T19:22:56.739Z,10.63
2022-10-04T19:25:24.299Z,10.93
2022-10-04T19:28:04.272Z,12.75
2022-10-04T19:30:48.124Z,8.57
2022-10-04T19:33:24.652Z,13.38
2022-10-04T19:35:55.231Z,9.93
2022-10-04T19:38:25.589Z,11.68
2022-10-04T19:40:57.549Z,9.75
2022-10-04T19:43:32.329Z,11.50
2022-10-04T19:46:11.229Z,13.98
2022-10-04T19:48:46.809Z,9.00
2022-10-04T19:51:21.651Z,10.77
2022-10-04T19:53:51.159Z,11.25
2022-10-04T19:56:26.468Z,15.50
2022-10-04T19:59:10.443Z,13.05
2022-10-04T20:01:38.628Z,13.20
2022-10-04T20:04:31.087Z,11.13
2022-10-04T20:07:00.804Z,13.23
2022-10-04T20:09:37.200Z,12.30
2022-10-04T20:12:05.741Z,8.93
2022-10-04T20:14:33.254Z,10.38
2022-10-04T20:17:00.780Z,9.48
2022-10-04T20:19:28.343Z,11.57
2022-10-04T20:21:56.365Z,9.55
2022-10-04T20:24:42.075Z,11.10
2022-10-04T20:27:28.511Z,14.95
2022-10-04T20:29:57.017Z,14.75
2022-10-04T20:32:27.812Z,12.25
2022-10-04T20:34:56.403Z,10.77
2022-10-04T20:37:58.915Z,9.73
2022-10-04T20:40:40.632Z,10.27
2022-10-04T20:43:14.011Z,9.75
2022-10-04T20:45:46.089Z,11.00
2022-10-04T20:48:18.334Z,14.50
2022-10-04T20:50:49.496Z,8.65
2022-10-04T20:53:20.071Z,10.55
2022-10-04T20:55:47.762Z,12.73
2022-10-04T20:58:32.494Z,11.10
2022-10-04T21:01:06.448Z,9.00
2022-10-04T21:03:34.003Z,9.82
2022-10-04T21:06:08.455Z,9.30
2022-10-04T21:08:37.020Z,11.48
2022-10-04T21:11:07.780Z,10.93
2022-10-04T21:13:58.537Z,8.60
2022-10-04T21:16:35.270Z,10.48
2022-10-04T21:19:21.720Z,10.90
2022-10-04T21:21:49.740Z,13.50
2022-10-04T21:24:46.588Z,9.88
2022-10-04T21:27:26.625Z,11.07
2022-10-04T21:29:54.387Z,10.93
2022-10-04T21:32:22.396Z,10.38
2022-10-04T21:34:54.410Z,9.38
2022-10-04T21:37:22.401Z,10.30
2022-10-04T21:39:50.180Z,9.07
2022-10-04T21:42:17.869Z,10.77
2022-10-04T21:44:45.516Z,11.40
2022-10-04T21:47:13.081Z,7.63
2022-10-04T21:49:40.627Z,8.73
2022-10-04T21:52:08.171Z,11.65
2022-10-04T21:54:35.742Z,11.20
2022-10-04T21:57:03.315Z,7.25
2022-10-04T21:59:30.935Z,9.10
2022-10-04T22:01:58.500Z,7.65
2022-10-04T22:04:26.123Z,10.52
2022-10-04T22:06:53.626Z,11.02
2022-10-04T22:09:21.319Z,12.90
2022-10-04T22:11:48.885Z,8.13
2022-10-04T22:14:16.443Z,7.90
2022-10-04T22:16:44.390Z,12.93
2022-10-04T22:19:12.259Z,8.82
2022-10-04T22:21:39.783Z,7.18
2022-10-04T22:24:11.369Z,9.68
2022-10-04T22:26:38.874Z,7.13
2022-10-04T22:29:12.982Z,11.20
2022-10-04T22:31:44.010Z,7.63
2022-10-04T22:34:17.248Z,12.13
2022-10-04T22:36:45.942Z,11.23
2022-10-04T22:39:14.181Z,8.00
2022-10-04T22:41:43.316Z,10.45
2022-10-04T22:44:16.764Z,7.80
2022-10-04T22:46:46.079Z,7.22
2022-10-04T22:49:16.820Z,6.03
2022-10-04T22:51:45.511Z,10.23
2022-10-04T22:54:17.111Z,8.65
2022-10-04T22:56:44.949Z,9.32
2022-10-04T22:59:14.153Z,7.10
2022-10-04T23:01:42.767Z,9.40
2022-10-04T23:04:28.433Z,11.02
2022-10-04T23:06:56.040Z,6.75
2022-10-04T23:09:23.598Z,12.90
2022-10-04T23:11:51.131Z,7.82
2022-10-04T23:14:18.738Z,6.45
2022-10-04T23:16:46.869Z,7.95
2022-10-04T23:19:20.936Z,8.52
2022-10-04T23:21:49.538Z,6.20
2022-10-04T23:24:21.398Z,8.05
2022-10-04T23:26:56.292Z,8.85
2022-10-04T23:29:28.476Z,8.30
2022-10-04T23:31:56.361Z,6.60
2022-10-04T23:34:35.867Z,7.75
2022-10-04T23:37:03.822Z,8.70
2022-10-04T23:39:33.676Z,6.15
2022-10-04T23:42:01.723Z,5.57
2022-10-04T23:44:36.564Z,9.15
2022-10-04T23:47:06.464Z,6.93
2022-10-04T23:49:34.624Z,6.85
2022-10-04T23:52:03.497Z,6.43
2022-10-04T23:54:31.071Z,6.50
2022-10-04T23:56:58.572Z,7.72
2022-10-04T23:59:26.314Z,8.52
